sensor_id;sensor_type;location;lat;lon;timestamp;P1;durP1;ratioP1;P2;durP2;ratioP2
59607;SDS011;45426;44.726;10.390;2023-08-24T00:01:03;10.02;;;5.15;;
59607;SDS011;45426;44.726;10.390;2023-08-24T00:03:29;14.30;;;5.30;;
59607;SDS011;45426;44.726;10.390;2023-08-24T00:05:54;10.63;;;6.00;;
59607;SDS011;45426;44.726;10.390;2023-08-24T00:08:20;9.07;;;5.25;;
59607;SDS011;45426;44.726;10.390;2023-08-24T00:10:45;9.73;;;5.00;;
59607;SDS011;45426;44.726;10.390;2023-08-24T00:13:12;11.55;;;5.43;;
59607;SDS011;45426;44.726;10.390;2023-08-24T00:15:37;9.65;;;5.32;;
59607;SDS011;45426;44.726;10.390;2023-08-24T00:18:04;9.63;;;5.05;;
59607;SDS011;45426;44.726;10.390;2023-08-24T00:20:30;11.48;;;5.57;;
59607;SDS011;45426;44.726;10.390;2023-08-24T00:22:57;10.88;;;5.30;;
59607;SDS011;45426;44.726;10.390;2023-08-24T00:25:23;12.48;;;5.13;;
59607;SDS011;45426;44.726;10.390;2023-08-24T00:27:49;9.27;;;4.63;;
59607;SDS011;45426;44.726;10.390;2023-08-24T00:30:18;10.48;;;5.20;;
59607;SDS011;45426;44.726;10.390;2023-08-24T00:32:44;10.55;;;5.32;;
59607;SDS011;45426;44.726;10.390;2023-08-24T00:35:09;8.73;;;4.95;;
59607;SDS011;45426;44.726;10.390;2023-08-24T00:37:35;11.25;;;5.10;;
59607;SDS011;45426;44.726;10.390;2023-08-24T00:40:02;9.15;;;5.20;;
59607;SDS011;45426;44.726;10.390;2023-08-24T00:42:32;9.02;;;4.60;;
59607;SDS011;45426;44.726;10.390;2023-08-24T00:44:58;15.10;;;5.20;;
59607;SDS011;45426;44.726;10.390;2023-08-24T00:47:23;9.73;;;5.22;;
59607;SDS011;45426;44.726;10.390;2023-08-24T00:49:50;9.05;;;5.00;;
59607;SDS011;45426;44.726;10.390;2023-08-24T00:52:16;9.00;;;5.38;;
59607;SDS011;45426;44.726;10.390;2023-08-24T00:54:42;7.65;;;5.00;;
59607;SDS011;45426;44.726;10.390;2023-08-24T00:57:07;9.02;;;5.32;;
59607;SDS011;45426;44.726;10.390;2023-08-24T00:59:33;10.95;;;5.25;;
59607;SDS011;45426;44.726;10.390;2023-08-24T01:01:59;12.90;;;5.20;;
59607;SDS011;45426;44.726;10.390;2023-08-24T01:04:25;9.23;;;5.18;;
59607;SDS011;45426;44.726;10.390;2023-08-24T01:06:50;9.98;;;5.85;;
59607;SDS011;45426;44.726;10.390;2023-08-24T01:09:17;10.32;;;5.50;;
59607;SDS011;45426;44.726;10.390;2023-08-24T01:14:35;9.48;;;5.50;;
59607;SDS011;45426;44.726;10.390;2023-08-24T01:17:08;9.65;;;5.15;;
59607;SDS011;45426;44.726;10.390;2023-08-24T01:19:41;10.60;;;5.30;;
59607;SDS011;45426;44.726;10.390;2023-08-24T01:22:12;9.93;;;5.75;;
59607;SDS011;45426;44.726;10.390;2023-08-24T01:24:47;11.68;;;5.35;;
59607;SDS011;45426;44.726;10.390;2023-08-24T01:27:18;10.27;;;5.50;;
59607;SDS011;45426;44.726;10.390;2023-08-24T01:29:46;11.13;;;5.47;;
59607;SDS011;45426;44.726;10.390;2023-08-24T01:32:11;11.25;;;5.18;;
59607;SDS011;45426;44.726;10.390;2023-08-24T01:34:37;9.90;;;5.43;;
59607;SDS011;45426;44.726;10.390;2023-08-24T01:37:04;11.15;;;5.22;;
59607;SDS011;45426;44.726;10.390;2023-08-24T01:39:35;10.32;;;6.18;;
59607;SDS011;45426;44.726;10.390;2023-08-24T01:42:08;14.35;;;5.72;;
59607;SDS011;45426;44.726;10.390;2023-08-24T01:44:39;11.45;;;5.45;;
59607;SDS011;45426;44.726;10.390;2023-08-24T01:47:12;11.45;;;5.50;;
59607;SDS011;45426;44.726;10.390;2023-08-24T01:49:38;15.25;;;5.88;;
59607;SDS011;45426;44.726;10.390;2023-08-24T01:52:05;11.88;;;5.57;;
59607;SDS011;45426;44.726;10.390;2023-08-24T01:54:31;15.15;;;5.97;;
59607;SDS011;45426;44.726;10.390;2023-08-24T01:56:57;11.90;;;5.95;;
59607;SDS011;45426;44.726;10.390;2023-08-24T01:59:22;14.77;;;6.43;;
59607;SDS011;45426;44.726;10.390;2023-08-24T02:01:48;10.77;;;5.82;;
59607;SDS011;45426;44.726;10.390;2023-08-24T02:04:13;10.90;;;5.45;;
59607;SDS011;45426;44.726;10.390;2023-08-24T02:06:39;9.23;;;5.68;;
59607;SDS011;45426;44.726;10.390;2023-08-24T02:09:04;9.57;;;5.65;;
59607;SDS011;45426;44.726;10.390;2023-08-24T02:11:29;13.00;;;5.20;;
59607;SDS011;45426;44.726;10.390;2023-08-24T02:13:55;10.57;;;5.90;;
59607;SDS011;45426;44.726;10.390;2023-08-24T02:16:20;11.15;;;5.40;;
59607;SDS011;45426;44.726;10.390;2023-08-24T02:18:46;11.18;;;5.28;;
59607;SDS011;45426;44.726;10.390;2023-08-24T02:21:11;8.93;;;5.18;;
59607;SDS011;45426;44.726;10.390;2023-08-24T02:23:37;10.63;;;5.55;;
59607;SDS011;45426;44.726;10.390;2023-08-24T02:26:03;10.15;;;5.03;;
59607;SDS011;45426;44.726;10.390;2023-08-24T02:28:29;11.07;;;5.32;;
59607;SDS011;45426;44.726;10.390;2023-08-24T02:30:59;10.00;;;5.47;;
59607;SDS011;45426;44.726;10.390;2023-08-24T02:33:25;10.52;;;5.20;;
59607;SDS011;45426;44.726;10.390;2023-08-24T02:35:51;10.02;;;5.43;;
59607;SDS011;45426;44.726;10.390;2023-08-24T02:38:16;11.18;;;5.03;;
59607;SDS011;45426;44.726;10.390;2023-08-24T02:40:41;10.23;;;5.43;;
59607;SDS011;45426;44.726;10.390;2023-08-24T02:43:07;10.95;;;5.25;;
59607;SDS011;45426;44.726;10.390;2023-08-24T02:45:32;11.18;;;6.65;;
59607;SDS011;45426;44.726;10.390;2023-08-24T02:47:58;9.98;;;5.90;;
59607;SDS011;45426;44.726;10.390;2023-08-24T02:50:23;11.90;;;5.88;;
59607;SDS011;45426;44.726;10.390;2023-08-24T02:52:49;10.90;;;5.38;;
59607;SDS011;45426;44.726;10.390;2023-08-24T02:55:16;9.80;;;5.82;;
59607;SDS011;45426;44.726;10.390;2023-08-24T02:57:41;9.68;;;5.75;;
59607;SDS011;45426;44.726;10.390;2023-08-24T03:00:07;9.93;;;5.43;;
59607;SDS011;45426;44.726;10.390;2023-08-24T03:02:34;10.02;;;5.32;;
59607;SDS011;45426;44.726;10.390;2023-08-24T03:05:01;10.30;;;5.57;;
59607;SDS011;45426;44.726;10.390;2023-08-24T03:07:27;10.65;;;5.82;;
59607;SDS011;45426;44.726;10.390;2023-08-24T03:09:52;11.88;;;6.03;;
59607;SDS011;45426;44.726;10.390;2023-08-24T03:12:18;13.90;;;6.25;;
59607;SDS011;45426;44.726;10.390;2023-08-24T03:14:43;11.60;;;6.45;;
59607;SDS011;45426;44.726;10.390;2023-08-24T03:17:09;11.70;;;5.72;;
59607;SDS011;45426;44.726;10.390;2023-08-24T03:19:34;11.10;;;5.57;;
59607;SDS011;45426;44.726;10.390;2023-08-24T03:21:59;10.10;;;5.88;;
59607;SDS011;45426;44.726;10.390;2023-08-24T03:24:25;10.02;;;5.68;;
59607;SDS011;45426;44.726;10.390;2023-08-24T03:26:50;9.50;;;6.00;;
59607;SDS011;45426;44.726;10.390;2023-08-24T03:29:16;10.13;;;5.80;;
59607;SDS011;45426;44.726;10.390;2023-08-24T03:31:41;11.15;;;5.75;;
59607;SDS011;45426;44.726;10.390;2023-08-24T03:34:07;13.25;;;5.80;;
59607;SDS011;45426;44.726;10.390;2023-08-24T03:36:32;8.55;;;5.45;;
59607;SDS011;45426;44.726;10.390;2023-08-24T03:38:57;8.98;;;5.53;;
59607;SDS011;45426;44.726;10.390;2023-08-24T03:41:23;11.60;;;6.00;;
59607;SDS011;45426;44.726;10.390;2023-08-24T03:43:48;9.02;;;5.70;;
59607;SDS011;45426;44.726;10.390;2023-08-24T03:46:14;10.23;;;5.60;;
59607;SDS011;45426;44.726;10.390;2023-08-24T03:48:39;8.38;;;5.18;;
59607;SDS011;45426;44.726;10.390;2023-08-24T03:51:05;11.25;;;5.60;;
59607;SDS011;45426;44.726;10.390;2023-08-24T03:53:30;10.23;;;5.68;;
59607;SDS011;45426;44.726;10.390;2023-08-24T03:55:57;10.65;;;5.13;;
59607;SDS011;45426;44.726;10.390;2023-08-24T03:58:28;8.68;;;5.45;;
59607;SDS011;45426;44.726;10.390;2023-08-24T04:01:20;11.02;;;5.60;;
59607;SDS011;45426;44.726;10.390;2023-08-24T04:03:47;11.25;;;6.60;;
59607;SDS011;45426;44.726;10.390;2023-08-24T04:06:12;12.38;;;6.60;;
59607;SDS011;45426;44.726;10.390;2023-08-24T04:08:38;10.70;;;6.60;;
59607;SDS011;45426;44.726;10.390;2023-08-24T04:11:03;10.50;;;6.07;;
59607;SDS011;45426;44.726;10.390;2023-08-24T04:13:29;10.30;;;6.22;;
59607;SDS011;45426;44.726;10.390;2023-08-24T04:15:54;10.93;;;5.97;;
59607;SDS011;45426;44.726;10.390;2023-08-24T04:18:20;12.55;;;6.15;;
59607;SDS011;45426;44.726;10.390;2023-08-24T04:20:45;12.20;;;6.72;;
59607;SDS011;45426;44.726;10.390;2023-08-24T04:23:12;11.27;;;5.82;;
59607;SDS011;45426;44.726;10.390;2023-08-24T04:25:41;13.05;;;6.70;;
59607;SDS011;45426;44.726;10.390;2023-08-24T04:28:11;12.35;;;6.50;;
59607;SDS011;45426;44.726;10.390;2023-08-24T04:30:36;11.10;;;5.82;;
59607;SDS011;45426;44.726;10.390;2023-08-24T04:33:02;10.98;;;6.28;;
59607;SDS011;45426;44.726;10.390;2023-08-24T04:35:28;11.23;;;6.80;;
59607;SDS011;45426;44.726;10.390;2023-08-24T04:37:54;15.75;;;6.65;;
59607;SDS011;45426;44.726;10.390;2023-08-24T04:40:20;13.85;;;6.53;;
59607;SDS011;45426;44.726;10.390;2023-08-24T04:42:45;10.10;;;6.10;;
59607;SDS011;45426;44.726;10.390;2023-08-24T04:45:11;12.40;;;6.53;;
59607;SDS011;45426;44.726;10.390;2023-08-24T04:47:36;11.68;;;6.97;;
59607;SDS011;45426;44.726;10.390;2023-08-24T04:50:01;10.38;;;6.40;;
59607;SDS011;45426;44.726;10.390;2023-08-24T04:52:27;12.07;;;6.82;;
59607;SDS011;45426;44.726;10.390;2023-08-24T04:54:53;13.60;;;7.05;;
59607;SDS011;45426;44.726;10.390;2023-08-24T04:57:18;15.63;;;6.30;;
59607;SDS011;45426;44.726;10.390;2023-08-24T04:59:44;11.10;;;6.30;;
59607;SDS011;45426;44.726;10.390;2023-08-24T05:02:09;10.57;;;6.13;;
59607;SDS011;45426;44.726;10.390;2023-08-24T05:04:35;11.00;;;5.72;;
59607;SDS011;45426;44.726;10.390;2023-08-24T05:07:00;9.48;;;5.75;;
59607;SDS011;45426;44.726;10.390;2023-08-24T05:09:25;10.38;;;6.03;;
59607;SDS011;45426;44.726;10.390;2023-08-24T05:11:51;11.73;;;6.10;;
59607;SDS011;45426;44.726;10.390;2023-08-24T05:14:16;10.98;;;6.20;;
59607;SDS011;45426;44.726;10.390;2023-08-24T05:16:42;9.68;;;6.47;;
59607;SDS011;45426;44.726;10.390;2023-08-24T05:19:07;11.30;;;6.57;;
59607;SDS011;45426;44.726;10.390;2023-08-24T05:21:33;10.70;;;6.20;;
59607;SDS011;45426;44.726;10.390;2023-08-24T05:23:58;16.17;;;7.05;;
59607;SDS011;45426;44.726;10.390;2023-08-24T05:26:23;14.48;;;6.30;;
59607;SDS011;45426;44.726;10.390;2023-08-24T05:28:49;13.20;;;7.28;;
59607;SDS011;45426;44.726;10.390;2023-08-24T05:31:15;12.90;;;6.53;;
59607;SDS011;45426;44.726;10.390;2023-08-24T05:33:40;12.02;;;6.93;;
59607;SDS011;45426;44.726;10.390;2023-08-24T05:36:06;13.57;;;6.70;;
59607;SDS011;45426;44.726;10.390;2023-08-24T05:38:31;13.07;;;6.65;;
59607;SDS011;45426;44.726;10.390;2023-08-24T05:40:56;13.15;;;6.57;;
59607;SDS011;45426;44.726;10.390;2023-08-24T05:43:22;12.98;;;6.75;;
59607;SDS011;45426;44.726;10.390;2023-08-24T05:45:48;13.52;;;6.88;;
59607;SDS011;45426;44.726;10.390;2023-08-24T05:48:13;14.35;;;6.32;;
59607;SDS011;45426;44.726;10.390;2023-08-24T05:50:46;10.32;;;6.38;;
59607;SDS011;45426;44.726;10.390;2023-08-24T05:53:12;12.80;;;6.55;;
59607;SDS011;45426;44.726;10.390;2023-08-24T05:55:38;12.57;;;6.22;;
59607;SDS011;45426;44.726;10.390;2023-08-24T05:58:03;11.18;;;6.55;;
59607;SDS011;45426;44.726;10.390;2023-08-24T06:00:29;11.85;;;5.68;;
59607;SDS011;45426;44.726;10.390;2023-08-24T06:02:55;10.52;;;6.10;;
59607;SDS011;45426;44.726;10.390;2023-08-24T06:05:20;13.23;;;6.18;;
59607;SDS011;45426;44.726;10.390;2023-08-24T06:07:45;12.77;;;6.10;;
59607;SDS011;45426;44.726;10.390;2023-08-24T06:10:11;13.57;;;5.80;;
59607;SDS011;45426;44.726;10.390;2023-08-24T06:12:37;11.60;;;5.80;;
59607;SDS011;45426;44.726;10.390;2023-08-24T06:15:03;11.73;;;5.47;;
59607;SDS011;45426;44.726;10.390;2023-08-24T06:17:29;10.45;;;5.50;;
59607;SDS011;45426;44.726;10.390;2023-08-24T06:19:55;13.30;;;6.00;;
59607;SDS011;45426;44.726;10.390;2023-08-24T06:22:20;11.85;;;5.20;;
59607;SDS011;45426;44.726;10.390;2023-08-24T06:24:46;13.27;;;5.63;;
59607;SDS011;45426;44.726;10.390;2023-08-24T06:27:11;12.13;;;5.63;;
59607;SDS011;45426;44.726;10.390;2023-08-24T06:29:36;11.98;;;5.45;;
59607;SDS011;45426;44.726;10.390;2023-08-24T06:32:02;10.40;;;5.70;;
59607;SDS011;45426;44.726;10.390;2023-08-24T06:34:27;15.57;;;6.30;;
59607;SDS011;45426;44.726;10.390;2023-08-24T06:36:53;13.30;;;5.90;;
59607;SDS011;45426;44.726;10.390;2023-08-24T06:39:19;12.63;;;6.10;;
59607;SDS011;45426;44.726;10.390;2023-08-24T06:41:44;10.00;;;5.43;;
59607;SDS011;45426;44.726;10.390;2023-08-24T06:44:10;12.52;;;6.00;;
59607;SDS011;45426;44.726;10.390;2023-08-24T06:46:35;14.35;;;6.15;;
59607;SDS011;45426;44.726;10.390;2023-08-24T06:49:01;10.88;;;5.95;;
59607;SDS011;45426;44.726;10.390;2023-08-24T06:51:26;11.23;;;5.88;;
59607;SDS011;45426;44.726;10.390;2023-08-24T06:53:52;11.18;;;5.80;;
59607;SDS011;45426;44.726;10.390;2023-08-24T06:56:17;12.52;;;5.63;;
59607;SDS011;45426;44.726;10.390;2023-08-24T06:58:43;10.82;;;5.47;;
59607;SDS011;45426;44.726;10.390;2023-08-24T07:01:10;10.80;;;5.45;;
59607;SDS011;45426;44.726;10.390;2023-08-24T07:03:36;10.98;;;5.60;;
59607;SDS011;45426;44.726;10.390;2023-08-24T07:06:01;9.75;;;5.40;;
59607;SDS011;45426;44.726;10.390;2023-08-24T07:08:27;10.93;;;4.90;;
59607;SDS011;45426;44.726;10.390;2023-08-24T07:10:52;11.95;;;4.75;;
59607;SDS011;45426;44.726;10.390;2023-08-24T07:13:18;8.35;;;4.68;;
59607;SDS011;45426;44.726;10.390;2023-08-24T07:15:43;9.18;;;4.18;;
59607;SDS011;45426;44.726;10.390;2023-08-24T07:18:10;10.15;;;4.95;;
59607;SDS011;45426;44.726;10.390;2023-08-24T07:20:36;11.77;;;4.80;;
59607;SDS011;45426;44.726;10.390;2023-08-24T07:23:02;8.20;;;5.32;;
59607;SDS011;45426;44.726;10.390;2023-08-24T07:25:28;7.75;;;4.70;;
59607;SDS011;45426;44.726;10.390;2023-08-24T07:27:53;7.95;;;5.00;;
59607;SDS011;45426;44.726;10.390;2023-08-24T07:30:23;10.13;;;4.95;;
59607;SDS011;45426;44.726;10.390;2023-08-24T07:32:52;9.55;;;4.88;;
59607;SDS011;45426;44.726;10.390;2023-08-24T07:35:21;12.63;;;5.43;;
59607;SDS011;45426;44.726;10.390;2023-08-24T07:37:49;11.77;;;5.20;;
59607;SDS011;45426;44.726;10.390;2023-08-24T07:40:15;10.35;;;5.30;;
59607;SDS011;45426;44.726;10.390;2023-08-24T07:42:47;10.93;;;5.15;;
59607;SDS011;45426;44.726;10.390;2023-08-24T07:45:16;9.60;;;5.22;;
59607;SDS011;45426;44.726;10.390;2023-08-24T07:47:42;8.40;;;5.10;;
59607;SDS011;45426;44.726;10.390;2023-08-24T07:50:08;12.35;;;5.65;;
59607;SDS011;45426;44.726;10.390;2023-08-24T07:52:34;9.90;;;5.97;;
59607;SDS011;45426;44.726;10.390;2023-08-24T07:55:00;10.82;;;5.40;;
59607;SDS011;45426;44.726;10.390;2023-08-24T07:57:25;10.32;;;5.03;;
59607;SDS011;45426;44.726;10.390;2023-08-24T07:59:54;10.38;;;5.30;;
59607;SDS011;45426;44.726;10.390;2023-08-24T08:02:19;9.38;;;5.10;;
59607;SDS011;45426;44.726;10.390;2023-08-24T08:04:45;10.63;;;5.45;;
59607;SDS011;45426;44.726;10.390;2023-08-24T08:07:11;11.45;;;5.53;;
59607;SDS011;45426;44.726;10.390;2023-08-24T08:09:37;11.63;;;5.97;;
59607;SDS011;45426;44.726;10.390;2023-08-24T08:12:02;10.60;;;5.55;;
59607;SDS011;45426;44.726;10.390;2023-08-24T08:14:28;11.95;;;6.40;;
59607;SDS011;45426;44.726;10.390;2023-08-24T08:16:54;10.10;;;5.47;;
59607;SDS011;45426;44.726;10.390;2023-08-24T08:19:20;9.98;;;6.18;;
59607;SDS011;45426;44.726;10.390;2023-08-24T08:21:46;11.40;;;5.95;;
59607;SDS011;45426;44.726;10.390;2023-08-24T08:24:12;13.30;;;6.43;;
59607;SDS011;45426;44.726;10.390;2023-08-24T08:26:38;9.50;;;5.80;;
59607;SDS011;45426;44.726;10.390;2023-08-24T08:29:03;10.93;;;6.07;;
59607;SDS011;45426;44.726;10.390;2023-08-24T08:31:30;12.23;;;6.10;;
59607;SDS011;45426;44.726;10.390;2023-08-24T08:33:56;9.50;;;6.13;;
59607;SDS011;45426;44.726;10.390;2023-08-24T08:36:21;9.82;;;5.95;;
59607;SDS011;45426;44.726;10.390;2023-08-24T08:38:46;11.57;;;5.80;;
59607;SDS011;45426;44.726;10.390;2023-08-24T08:41:12;9.45;;;6.20;;
59607;SDS011;45426;44.726;10.390;2023-08-24T08:43:39;10.02;;;5.72;;
59607;SDS011;45426;44.726;10.390;2023-08-24T08:46:06;10.15;;;6.00;;
59607;SDS011;45426;44.726;10.390;2023-08-24T08:48:31;10.25;;;5.88;;
59607;SDS011;45426;44.726;10.390;2023-08-24T08:50:58;11.75;;;5.93;;
59607;SDS011;45426;44.726;10.390;2023-08-24T08:53:26;9.52;;;6.18;;
59607;SDS011;45426;44.726;10.390;2023-08-24T08:55:52;12.73;;;6.25;;
59607;SDS011;45426;44.726;10.390;2023-08-24T08:58:19;14.57;;;6.13;;
59607;SDS011;45426;44.726;10.390;2023-08-24T09:00:46;10.60;;;5.85;;
59607;SDS011;45426;44.726;10.390;2023-08-24T09:03:13;9.20;;;5.57;;
59607;SDS011;45426;44.726;10.390;2023-08-24T09:05:42;9.07;;;5.80;;
59607;SDS011;45426;44.726;10.390;2023-08-24T09:08:08;12.10;;;5.95;;
59607;SDS011;45426;44.726;10.390;2023-08-24T09:10:34;13.43;;;6.07;;
59607;SDS011;45426;44.726;10.390;2023-08-24T09:12:59;11.48;;;6.03;;
59607;SDS011;45426;44.726;10.390;2023-08-24T09:15:25;17.65;;;5.70;;
59607;SDS011;45426;44.726;10.390;2023-08-24T09:17:52;10.98;;;6.00;;
59607;SDS011;45426;44.726;10.390;2023-08-24T09:20:19;12.40;;;6.10;;
59607;SDS011;45426;44.726;10.390;2023-08-24T09:22:44;12.75;;;6.43;;
59607;SDS011;45426;44.726;10.390;2023-08-24T09:25:10;11.23;;;6.30;;
59607;SDS011;45426;44.726;10.390;2023-08-24T09:27:36;12.73;;;5.85;;
59607;SDS011;45426;44.726;10.390;2023-08-24T09:30:01;9.85;;;5.82;;
59607;SDS011;45426;44.726;10.390;2023-08-24T09:32:27;12.82;;;6.57;;
59607;SDS011;45426;44.726;10.390;2023-08-24T09:34:54;10.13;;;5.95;;
59607;SDS011;45426;44.726;10.390;2023-08-24T09:37:20;10.45;;;6.38;;
59607;SDS011;45426;44.726;10.390;2023-08-24T09:39:46;10.48;;;5.70;;
59607;SDS011;45426;44.726;10.390;2023-08-24T09:42:12;8.85;;;5.57;;
59607;SDS011;45426;44.726;10.390;2023-08-24T09:44:43;8.90;;;6.28;;
59607;SDS011;45426;44.726;10.390;2023-08-24T09:47:10;10.20;;;5.45;;
59607;SDS011;45426;44.726;10.390;2023-08-24T09:49:36;9.60;;;5.18;;
59607;SDS011;45426;44.726;10.390;2023-08-24T09:52:02;13.55;;;5.40;;
59607;SDS011;45426;44.726;10.390;2023-08-24T09:54:31;8.60;;;5.20;;
59607;SDS011;45426;44.726;10.390;2023-08-24T09:57:00;11.77;;;5.03;;
59607;SDS011;45426;44.726;10.390;2023-08-24T09:59:28;9.75;;;5.32;;
59607;SDS011;45426;44.726;10.390;2023-08-24T10:01:57;10.65;;;5.22;;
59607;SDS011;45426;44.726;10.390;2023-08-24T10:04:28;9.80;;;5.60;;
59607;SDS011;45426;44.726;10.390;2023-08-24T10:06:55;9.70;;;5.25;;
59607;SDS011;45426;44.726;10.390;2023-08-24T10:09:31;15.30;;;5.90;;
59607;SDS011;45426;44.726;10.390;2023-08-24T10:12:00;11.30;;;5.80;;
59607;SDS011;45426;44.726;10.390;2023-08-24T10:14:31;11.98;;;5.45;;
59607;SDS011;45426;44.726;10.390;2023-08-24T10:17:01;10.43;;;5.55;;
59607;SDS011;45426;44.726;10.390;2023-08-24T10:19:26;10.82;;;5.38;;
59607;SDS011;45426;44.726;10.390;2023-08-24T10:21:53;10.25;;;5.88;;
59607;SDS011;45426;44.726;10.390;2023-08-24T10:24:22;9.82;;;5.47;;
59607;SDS011;45426;44.726;10.390;2023-08-24T10:26:48;12.82;;;5.50;;
59607;SDS011;45426;44.726;10.390;2023-08-24T10:29:14;7.40;;;4.90;;
59607;SDS011;45426;44.726;10.390;2023-08-24T10:31:41;10.95;;;5.30;;
59607;SDS011;45426;44.726;10.390;2023-08-24T10:34:08;9.48;;;5.22;;
59607;SDS011;45426;44.726;10.390;2023-08-24T10:36:34;10.52;;;5.40;;
59607;SDS011;45426;44.726;10.390;2023-08-24T10:39:03;8.85;;;5.05;;
59607;SDS011;45426;44.726;10.390;2023-08-24T10:41:50;9.52;;;5.40;;
59607;SDS011;45426;44.726;10.390;2023-08-24T10:44:20;9.55;;;5.28;;
59607;SDS011;45426;44.726;10.390;2023-08-24T10:49:32;9.15;;;5.00;;
59607;SDS011;45426;44.726;10.390;2023-08-24T10:51:59;8.48;;;5.13;;
59607;SDS011;45426;44.726;10.390;2023-08-24T10:54:45;8.75;;;5.35;;
59607;SDS011;45426;44.726;10.390;2023-08-24T10:57:26;9.52;;;5.10;;
59607;SDS011;45426;44.726;10.390;2023-08-24T11:02:30;11.13;;;4.82;;
59607;SDS011;45426;44.726;10.390;2023-08-24T11:05:23;8.95;;;4.65;;
59607;SDS011;45426;44.726;10.390;2023-08-24T11:08:04;9.93;;;4.68;;
59607;SDS011;45426;44.726;10.390;2023-08-24T11:15:34;9.98;;;4.60;;
59607;SDS011;45426;44.726;10.390;2023-08-24T11:20:38;8.23;;;4.40;;
59607;SDS011;45426;44.726;10.390;2023-08-24T11:23:07;8.05;;;4.70;;
59607;SDS011;45426;44.726;10.390;2023-08-24T11:25:37;6.72;;;4.50;;
59607;SDS011;45426;44.726;10.390;2023-08-24T11:28:03;7.75;;;4.65;;
59607;SDS011;45426;44.726;10.390;2023-08-24T11:30:29;8.50;;;4.90;;
59607;SDS011;45426;44.726;10.390;2023-08-24T11:32:56;8.10;;;4.45;;
59607;SDS011;45426;44.726;10.390;2023-08-24T11:35:21;10.38;;;4.30;;
59607;SDS011;45426;44.726;10.390;2023-08-24T11:37:57;7.53;;;4.55;;
59607;SDS011;45426;44.726;10.390;2023-08-24T11:40:23;10.23;;;5.15;;
59607;SDS011;45426;44.726;10.390;2023-08-24T11:43:00;8.73;;;4.95;;
59607;SDS011;45426;44.726;10.390;2023-08-24T11:45:32;11.27;;;5.50;;
59607;SDS011;45426;44.726;10.390;2023-08-24T11:48:01;11.45;;;4.82;;
59607;SDS011;45426;44.726;10.390;2023-08-24T11:50:29;9.63;;;4.82;;
59607;SDS011;45426;44.726;10.390;2023-08-24T11:52:55;6.07;;;4.25;;
59607;SDS011;45426;44.726;10.390;2023-08-24T11:55:24;8.77;;;4.45;;
59607;SDS011;45426;44.726;10.390;2023-08-24T11:57:49;8.27;;;4.28;;
59607;SDS011;45426;44.726;10.390;2023-08-24T12:00:16;7.65;;;4.40;;
59607;SDS011;45426;44.726;10.390;2023-08-24T12:02:44;8.43;;;4.53;;
59607;SDS011;45426;44.726;10.390;2023-08-24T12:05:23;7.68;;;4.30;;
59607;SDS011;45426;44.726;10.390;2023-08-24T12:07:51;8.50;;;3.80;;
59607;SDS011;45426;44.726;10.390;2023-08-24T12:10:19;5.85;;;3.83;;
59607;SDS011;45426;44.726;10.390;2023-08-24T12:12:45;6.55;;;3.80;;
59607;SDS011;45426;44.726;10.390;2023-08-24T12:15:19;8.23;;;3.92;;
59607;SDS011;45426;44.726;10.390;2023-08-24T12:17:46;6.80;;;3.90;;
59607;SDS011;45426;44.726;10.390;2023-08-24T12:20:17;5.63;;;3.70;;
59607;SDS011;45426;44.726;10.390;2023-08-24T12:22:43;8.82;;;3.78;;
59607;SDS011;45426;44.726;10.390;2023-08-24T12:25:09;7.10;;;3.80;;
59607;SDS011;45426;44.726;10.390;2023-08-24T12:27:37;7.32;;;3.95;;
59607;SDS011;45426;44.726;10.390;2023-08-24T12:30:02;6.90;;;3.80;;
59607;SDS011;45426;44.726;10.390;2023-08-24T12:32:41;7.13;;;4.10;;
59607;SDS011;45426;44.726;10.390;2023-08-24T12:35:10;8.35;;;4.00;;
59607;SDS011;45426;44.726;10.390;2023-08-24T12:37:36;7.60;;;3.55;;
59607;SDS011;45426;44.726;10.390;2023-08-24T12:40:02;6.65;;;4.07;;
59607;SDS011;45426;44.726;10.390;2023-08-24T12:42:30;6.80;;;3.80;;
59607;SDS011;45426;44.726;10.390;2023-08-24T12:44:56;7.15;;;3.75;;
59607;SDS011;45426;44.726;10.390;2023-08-24T12:47:21;7.25;;;4.15;;
59607;SDS011;45426;44.726;10.390;2023-08-24T12:49:47;8.18;;;3.85;;
59607;SDS011;45426;44.726;10.390;2023-08-24T12:52:13;8.57;;;3.90;;
59607;SDS011;45426;44.726;10.390;2023-08-24T12:54:39;6.82;;;3.90;;
59607;SDS011;45426;44.726;10.390;2023-08-24T12:57:04;6.88;;;4.10;;
59607;SDS011;45426;44.726;10.390;2023-08-24T12:59:30;10.25;;;4.10;;
59607;SDS011;45426;44.726;10.390;2023-08-24T13:01:55;8.10;;;4.10;;
59607;SDS011;45426;44.726;10.390;2023-08-24T13:04:20;9.07;;;3.90;;
59607;SDS011;45426;44.726;10.390;2023-08-24T13:06:46;7.63;;;3.85;;
59607;SDS011;45426;44.726;10.390;2023-08-24T13:09:11;5.03;;;3.70;;
59607;SDS011;45426;44.726;10.390;2023-08-24T13:11:38;9.55;;;4.10;;
59607;SDS011;45426;44.726;10.390;2023-08-24T13:14:04;19.55;;;4.60;;
59607;SDS011;45426;44.726;10.390;2023-08-24T13:16:29;10.02;;;3.78;;
59607;SDS011;45426;44.726;10.390;2023-08-24T13:18:55;16.83;;;4.45;;
59607;SDS011;45426;44.726;10.390;2023-08-24T13:21:21;7.70;;;3.80;;
59607;SDS011;45426;44.726;10.390;2023-08-24T13:23:47;6.13;;;3.47;;
59607;SDS011;45426;44.726;10.390;2023-08-24T13:26:19;7.75;;;4.00;;
59607;SDS011;45426;44.726;10.390;2023-08-24T13:28:46;5.20;;;3.78;;
59607;SDS011;45426;44.726;10.390;2023-08-24T13:31:12;6.68;;;3.78;;
59607;SDS011;45426;44.726;10.390;2023-08-24T13:33:38;6.85;;;3.88;;
59607;SDS011;45426;44.726;10.390;2023-08-24T13:36:03;8.32;;;3.90;;
59607;SDS011;45426;44.726;10.390;2023-08-24T13:38:29;5.60;;;3.60;;
59607;SDS011;45426;44.726;10.390;2023-08-24T13:40:55;6.80;;;3.60;;
59607;SDS011;45426;44.726;10.390;2023-08-24T13:43:21;7.25;;;4.07;;
59607;SDS011;45426;44.726;10.390;2023-08-24T13:45:46;6.80;;;3.90;;
59607;SDS011;45426;44.726;10.390;2023-08-24T13:48:12;6.43;;;3.83;;
59607;SDS011;45426;44.726;10.390;2023-08-24T13:50:37;5.60;;;3.85;;
59607;SDS011;45426;44.726;10.390;2023-08-24T13:53:03;7.63;;;3.63;;
59607;SDS011;45426;44.726;10.390;2023-08-24T13:55:28;7.05;;;3.65;;
59607;SDS011;45426;44.726;10.390;2023-08-24T13:57:55;9.77;;;4.03;;
59607;SDS011;45426;44.726;10.390;2023-08-24T14:00:20;6.65;;;3.88;;
59607;SDS011;45426;44.726;10.390;2023-08-24T14:02:48;6.85;;;3.78;;
59607;SDS011;45426;44.726;10.390;2023-08-24T14:05:14;9.63;;;4.13;;
59607;SDS011;45426;44.726;10.390;2023-08-24T14:07:39;6.63;;;4.00;;
59607;SDS011;45426;44.726;10.390;2023-08-24T14:10:05;6.28;;;3.90;;
59607;SDS011;45426;44.726;10.390;2023-08-24T14:12:34;6.20;;;3.80;;
59607;SDS011;45426;44.726;10.390;2023-08-24T14:15:00;11.35;;;3.80;;
59607;SDS011;45426;44.726;10.390;2023-08-24T14:17:26;5.88;;;3.58;;
59607;SDS011;45426;44.726;10.390;2023-08-24T14:19:51;7.88;;;3.80;;
59607;SDS011;45426;44.726;10.390;2023-08-24T14:22:17;5.97;;;3.78;;
59607;SDS011;45426;44.726;10.390;2023-08-24T14:24:42;8.68;;;4.18;;
59607;SDS011;45426;44.726;10.390;2023-08-24T14:27:08;7.55;;;3.60;;
59607;SDS011;45426;44.726;10.390;2023-08-24T14:29:33;6.35;;;3.67;;
59607;SDS011;45426;44.726;10.390;2023-08-24T14:31:59;6.43;;;3.83;;
59607;SDS011;45426;44.726;10.390;2023-08-24T14:34:24;7.70;;;3.53;;
59607;SDS011;45426;44.726;10.390;2023-08-24T14:36:50;8.30;;;4.15;;
59607;SDS011;45426;44.726;10.390;2023-08-24T14:39:15;6.53;;;4.00;;